sensor_id;sensor_type;location;lat;lon;timestamp;P1;durP1;ratioP1;P2;durP2;ratioP2
12892;SDS011;6514;48.606;9.222;2023-09-07T00:01:17;3.60;;;3.30;;
12892;SDS011;6514;48.606;9.222;2023-09-07T00:03:44;4.93;;;3.53;;
12892;SDS011;6514;48.606;9.222;2023-09-07T00:06:11;3.80;;;3.10;;
12892;SDS011;6514;48.606;9.222;2023-09-07T00:08:38;3.50;;;3.17;;
12892;SDS011;6514;48.606;9.222;2023-09-07T00:11:05;6.80;;;3.37;;
12892;SDS011;6514;48.606;9.222;2023-09-07T00:13:33;4.23;;;3.70;;
12892;SDS011;6514;48.606;9.222;2023-09-07T00:16:00;4.73;;;3.50;;
12892;SDS011;6514;48.606;9.222;2023-09-07T00:18:27;4.27;;;3.30;;
12892;SDS011;6514;48.606;9.222;2023-09-07T00:20:54;3.83;;;3.50;;
12892;SDS011;6514;48.606;9.222;2023-09-07T00:23:21;4.23;;;3.83;;
12892;SDS011;6514;48.606;9.222;2023-09-07T00:25:48;3.90;;;3.50;;
12892;SDS011;6514;48.606;9.222;2023-09-07T00:28:15;3.90;;;2.87;;
12892;SDS011;6514;48.606;9.222;2023-09-07T00:30:43;3.33;;;3.03;;
12892;SDS011;6514;48.606;9.222;2023-09-07T00:33:10;3.73;;;3.40;;
12892;SDS011;6514;48.606;9.222;2023-09-07T00:35:37;3.67;;;3.27;;
12892;SDS011;6514;48.606;9.222;2023-09-07T00:38:03;3.93;;;3.40;;
12892;SDS011;6514;48.606;9.222;2023-09-07T00:40:30;4.03;;;3.47;;
12892;SDS011;6514;48.606;9.222;2023-09-07T00:42:58;4.33;;;3.00;;
12892;SDS011;6514;48.606;9.222;2023-09-07T00:45:25;3.97;;;3.30;;
12892;SDS011;6514;48.606;9.222;2023-09-07T00:47:53;4.33;;;3.23;;
12892;SDS011;6514;48.606;9.222;2023-09-07T00:50:20;3.63;;;2.90;;
12892;SDS011;6514;48.606;9.222;2023-09-07T00:52:47;3.73;;;3.33;;
12892;SDS011;6514;48.606;9.222;2023-09-07T00:55:14;4.43;;;3.60;;
12892;SDS011;6514;48.606;9.222;2023-09-07T00:57:41;4.50;;;3.70;;
12892;SDS011;6514;48.606;9.222;2023-09-07T01:00:09;4.77;;;3.67;;
12892;SDS011;6514;48.606;9.222;2023-09-07T01:02:37;3.50;;;3.20;;
12892;SDS011;6514;48.606;9.222;2023-09-07T01:05:05;3.33;;;3.00;;
12892;SDS011;6514;48.606;9.222;2023-09-07T01:07:35;4.23;;;3.83;;
12892;SDS011;6514;48.606;9.222;2023-09-07T01:10:04;4.07;;;3.50;;
12892;SDS011;6514;48.606;9.222;2023-09-07T01:12:32;3.70;;;3.40;;
12892;SDS011;6514;48.606;9.222;2023-09-07T01:14:59;4.37;;;3.37;;
12892;SDS011;6514;48.606;9.222;2023-09-07T01:17:29;3.83;;;3.50;;
12892;SDS011;6514;48.606;9.222;2023-09-07T01:19:57;4.77;;;3.13;;
12892;SDS011;6514;48.606;9.222;2023-09-07T01:22:31;3.27;;;2.97;;
12892;SDS011;6514;48.606;9.222;2023-09-07T01:24:59;4.07;;;3.37;;
12892;SDS011;6514;48.606;9.222;2023-09-07T01:27:27;3.33;;;3.03;;
12892;SDS011;6514;48.606;9.222;2023-09-07T01:29:54;3.00;;;2.77;;
12892;SDS011;6514;48.606;9.222;2023-09-07T01:32:21;3.53;;;3.03;;
12892;SDS011;6514;48.606;9.222;2023-09-07T01:34:48;4.40;;;3.37;;
12892;SDS011;6514;48.606;9.222;2023-09-07T01:37:15;4.97;;;3.30;;
12892;SDS011;6514;48.606;9.222;2023-09-07T01:39:43;3.43;;;3.00;;
12892;SDS011;6514;48.606;9.222;2023-09-07T01:42:09;4.93;;;4.20;;
12892;SDS011;6514;48.606;9.222;2023-09-07T01:44:36;4.30;;;3.90;;
12892;SDS011;6514;48.606;9.222;2023-09-07T01:47:03;4.70;;;4.00;;
12892;SDS011;6514;48.606;9.222;2023-09-07T01:49:30;6.73;;;4.20;;
12892;SDS011;6514;48.606;9.222;2023-09-07T01:51:57;5.17;;;3.93;;
12892;SDS011;6514;48.606;9.222;2023-09-07T01:54:24;4.83;;;3.97;;
12892;SDS011;6514;48.606;9.222;2023-09-07T01:56:52;4.70;;;4.03;;
12892;SDS011;6514;48.606;9.222;2023-09-07T01:59:18;5.00;;;3.87;;
12892;SDS011;6514;48.606;9.222;2023-09-07T02:01:45;7.47;;;3.77;;
12892;SDS011;6514;48.606;9.222;2023-09-07T02:04:12;4.07;;;3.60;;
12892;SDS011;6514;48.606;9.222;2023-09-07T02:06:39;4.53;;;3.93;;
12892;SDS011;6514;48.606;9.222;2023-09-07T02:09:05;4.70;;;4.13;;
12892;SDS011;6514;48.606;9.222;2023-09-07T02:11:33;4.73;;;3.70;;
12892;SDS011;6514;48.606;9.222;2023-09-07T02:14:01;4.27;;;3.87;;
12892;SDS011;6514;48.606;9.222;2023-09-07T02:16:28;4.00;;;3.60;;
12892;SDS011;6514;48.606;9.222;2023-09-07T02:19:00;3.83;;;3.30;;
12892;SDS011;6514;48.606;9.222;2023-09-07T02:21:28;6.97;;;4.77;;
12892;SDS011;6514;48.606;9.222;2023-09-07T02:23:55;5.27;;;4.23;;
12892;SDS011;6514;48.606;9.222;2023-09-07T02:26:22;4.87;;;4.00;;
12892;SDS011;6514;48.606;9.222;2023-09-07T02:28:49;4.83;;;4.20;;
12892;SDS011;6514;48.606;9.222;2023-09-07T02:31:17;5.57;;;4.43;;
12892;SDS011;6514;48.606;9.222;2023-09-07T02:33:44;4.60;;;4.20;;
12892;SDS011;6514;48.606;9.222;2023-09-07T02:36:11;7.13;;;4.23;;
12892;SDS011;6514;48.606;9.222;2023-09-07T02:38:38;4.90;;;4.10;;
12892;SDS011;6514;48.606;9.222;2023-09-07T02:41:08;5.80;;;3.97;;
12892;SDS011;6514;48.606;9.222;2023-09-07T02:43:35;6.27;;;4.17;;
12892;SDS011;6514;48.606;9.222;2023-09-07T02:46:01;5.53;;;3.43;;
12892;SDS011;6514;48.606;9.222;2023-09-07T02:48:30;5.17;;;3.90;;
12892;SDS011;6514;48.606;9.222;2023-09-07T02:50:57;4.00;;;3.60;;
12892;SDS011;6514;48.606;9.222;2023-09-07T02:53:25;4.77;;;3.97;;
12892;SDS011;6514;48.606;9.222;2023-09-07T02:55:53;6.23;;;4.30;;
12892;SDS011;6514;48.606;9.222;2023-09-07T02:58:23;4.37;;;3.40;;
12892;SDS011;6514;48.606;9.222;2023-09-07T03:00:50;4.57;;;4.00;;
12892;SDS011;6514;48.606;9.222;2023-09-07T03:03:20;6.73;;;4.43;;
12892;SDS011;6514;48.606;9.222;2023-09-07T03:05:49;6.23;;;4.80;;
12892;SDS011;6514;48.606;9.222;2023-09-07T03:08:15;6.03;;;4.40;;
12892;SDS011;6514;48.606;9.222;2023-09-07T03:10:42;5.43;;;4.37;;
12892;SDS011;6514;48.606;9.222;2023-09-07T03:13:09;4.47;;;4.07;;
12892;SDS011;6514;48.606;9.222;2023-09-07T03:15:36;5.90;;;4.13;;
12892;SDS011;6514;48.606;9.222;2023-09-07T03:18:03;5.20;;;4.50;;
12892;SDS011;6514;48.606;9.222;2023-09-07T03:20:32;4.73;;;4.23;;
12892;SDS011;6514;48.606;9.222;2023-09-07T03:23:00;5.43;;;3.57;;
12892;SDS011;6514;48.606;9.222;2023-09-07T03:25:28;3.60;;;3.30;;
12892;SDS011;6514;48.606;9.222;2023-09-07T03:27:55;3.57;;;3.17;;
12892;SDS011;6514;48.606;9.222;2023-09-07T03:30:22;4.37;;;3.27;;
12892;SDS011;6514;48.606;9.222;2023-09-07T03:32:49;4.17;;;3.47;;
12892;SDS011;6514;48.606;9.222;2023-09-07T03:35:15;6.40;;;3.93;;
12892;SDS011;6514;48.606;9.222;2023-09-07T03:37:42;4.23;;;3.80;;
12892;SDS011;6514;48.606;9.222;2023-09-07T03:40:11;3.90;;;3.50;;
12892;SDS011;6514;48.606;9.222;2023-09-07T03:42:38;4.67;;;3.67;;
12892;SDS011;6514;48.606;9.222;2023-09-07T03:45:05;3.70;;;3.13;;
12892;SDS011;6514;48.606;9.222;2023-09-07T03:47:32;4.07;;;3.43;;
12892;SDS011;6514;48.606;9.222;2023-09-07T03:49:59;4.10;;;3.47;;
12892;SDS011;6514;48.606;9.222;2023-09-07T03:52:26;3.90;;;2.93;;
12892;SDS011;6514;48.606;9.222;2023-09-07T03:54:53;3.50;;;3.20;;
12892;SDS011;6514;48.606;9.222;2023-09-07T03:57:22;3.73;;;3.33;;
12892;SDS011;6514;48.606;9.222;2023-09-07T03:59:49;4.90;;;3.60;;
12892;SDS011;6514;48.606;9.222;2023-09-07T04:02:16;6.50;;;3.67;;
12892;SDS011;6514;48.606;9.222;2023-09-07T04:04:43;4.67;;;3.80;;
12892;SDS011;6514;48.606;9.222;2023-09-07T04:07:14;4.20;;;3.80;;
12892;SDS011;6514;48.606;9.222;2023-09-07T04:09:41;4.83;;;3.83;;
12892;SDS011;6514;48.606;9.222;2023-09-07T04:12:08;4.10;;;3.70;;
12892;SDS011;6514;48.606;9.222;2023-09-07T04:14:37;5.33;;;3.87;;
12892;SDS011;6514;48.606;9.222;2023-09-07T04:17:03;4.03;;;3.70;;
12892;SDS011;6514;48.606;9.222;2023-09-07T04:19:30;4.77;;;4.00;;
12892;SDS011;6514;48.606;9.222;2023-09-07T04:21:57;6.43;;;4.17;;
12892;SDS011;6514;48.606;9.222;2023-09-07T04:24:24;4.57;;;3.83;;
12892;SDS011;6514;48.606;9.222;2023-09-07T04:26:52;4.57;;;4.13;;
12892;SDS011;6514;48.606;9.222;2023-09-07T04:29:19;4.80;;;3.90;;
12892;SDS011;6514;48.606;9.222;2023-09-07T04:31:47;4.93;;;4.07;;
12892;SDS011;6514;48.606;9.222;2023-09-07T04:34:13;5.97;;;4.23;;
12892;SDS011;6514;48.606;9.222;2023-09-07T04:36:40;5.03;;;4.30;;
12892;SDS011;6514;48.606;9.222;2023-09-07T04:39:07;5.00;;;3.40;;
12892;SDS011;6514;48.606;9.222;2023-09-07T04:41:34;4.70;;;4.20;;
12892;SDS011;6514;48.606;9.222;2023-09-07T04:44:01;4.43;;;3.83;;
12892;SDS011;6514;48.606;9.222;2023-09-07T04:46:28;6.13;;;4.57;;
12892;SDS011;6514;48.606;9.222;2023-09-07T04:48:56;5.97;;;4.13;;
12892;SDS011;6514;48.606;9.222;2023-09-07T04:51:22;5.20;;;4.37;;
12892;SDS011;6514;48.606;9.222;2023-09-07T04:53:50;7.97;;;4.27;;
12892;SDS011;6514;48.606;9.222;2023-09-07T04:56:17;5.03;;;4.23;;
12892;SDS011;6514;48.606;9.222;2023-09-07T04:58:45;5.10;;;4.27;;
12892;SDS011;6514;48.606;9.222;2023-09-07T05:01:12;5.87;;;5.07;;
12892;SDS011;6514;48.606;9.222;2023-09-07T05:03:39;5.10;;;4.60;;
12892;SDS011;6514;48.606;9.222;2023-09-07T05:06:07;5.90;;;4.60;;
12892;SDS011;6514;48.606;9.222;2023-09-07T05:08:34;5.53;;;4.73;;
12892;SDS011;6514;48.606;9.222;2023-09-07T05:11:01;5.43;;;4.93;;
12892;SDS011;6514;48.606;9.222;2023-09-07T05:13:29;5.83;;;5.23;;
12892;SDS011;6514;48.606;9.222;2023-09-07T05:15:56;5.90;;;4.97;;
12892;SDS011;6514;48.606;9.222;2023-09-07T05:18:24;7.70;;;5.30;;
12892;SDS011;6514;48.606;9.222;2023-09-07T05:20:50;6.40;;;5.23;;
12892;SDS011;6514;48.606;9.222;2023-09-07T05:23:19;8.83;;;6.23;;
12892;SDS011;6514;48.606;9.222;2023-09-07T05:25:46;6.43;;;4.87;;
12892;SDS011;6514;48.606;9.222;2023-09-07T05:28:15;7.67;;;6.20;;
12892;SDS011;6514;48.606;9.222;2023-09-07T05:30:42;6.83;;;5.40;;
12892;SDS011;6514;48.606;9.222;2023-09-07T05:33:09;8.50;;;5.90;;
12892;SDS011;6514;48.606;9.222;2023-09-07T05:35:36;7.10;;;5.80;;
12892;SDS011;6514;48.606;9.222;2023-09-07T05:38:04;6.90;;;5.27;;
12892;SDS011;6514;48.606;9.222;2023-09-07T05:40:34;6.87;;;5.80;;
12892;SDS011;6514;48.606;9.222;2023-09-07T05:43:02;6.50;;;5.30;;
12892;SDS011;6514;48.606;9.222;2023-09-07T05:45:29;7.27;;;5.47;;
12892;SDS011;6514;48.606;9.222;2023-09-07T05:47:56;6.77;;;5.40;;
12892;SDS011;6514;48.606;9.222;2023-09-07T05:50:23;8.27;;;5.13;;
12892;SDS011;6514;48.606;9.222;2023-09-07T05:52:50;7.93;;;5.50;;
12892;SDS011;6514;48.606;9.222;2023-09-07T05:55:17;5.83;;;5.00;;
12892;SDS011;6514;48.606;9.222;2023-09-07T05:57:45;6.57;;;4.70;;
12892;SDS011;6514;48.606;9.222;2023-09-07T06:00:12;7.17;;;5.50;;
12892;SDS011;6514;48.606;9.222;2023-09-07T06:02:41;6.23;;;5.07;;
12892;SDS011;6514;48.606;9.222;2023-09-07T06:05:07;6.43;;;5.57;;
12892;SDS011;6514;48.606;9.222;2023-09-07T06:07:35;6.80;;;5.73;;
12892;SDS011;6514;48.606;9.222;2023-09-07T06:10:02;7.50;;;5.67;;
12892;SDS011;6514;48.606;9.222;2023-09-07T06:12:30;6.63;;;5.40;;
12892;SDS011;6514;48.606;9.222;2023-09-07T06:14:59;8.40;;;5.13;;
12892;SDS011;6514;48.606;9.222;2023-09-07T06:17:26;6.53;;;4.97;;
12892;SDS011;6514;48.606;9.222;2023-09-07T06:19:53;5.60;;;5.10;;
12892;SDS011;6514;48.606;9.222;2023-09-07T06:22:20;5.43;;;4.80;;
12892;SDS011;6514;48.606;9.222;2023-09-07T06:24:47;5.13;;;4.57;;
12892;SDS011;6514;48.606;9.222;2023-09-07T06:27:14;5.23;;;4.40;;
12892;SDS011;6514;48.606;9.222;2023-09-07T06:29:41;5.57;;;4.20;;
12892;SDS011;6514;48.606;9.222;2023-09-07T06:32:09;5.67;;;4.17;;
12892;SDS011;6514;48.606;9.222;2023-09-07T06:34:36;4.43;;;3.97;;
12892;SDS011;6514;48.606;9.222;2023-09-07T06:37:04;4.53;;;4.00;;
12892;SDS011;6514;48.606;9.222;2023-09-07T06:39:31;4.70;;;3.90;;
12892;SDS011;6514;48.606;9.222;2023-09-07T06:41:58;4.87;;;4.37;;
12892;SDS011;6514;48.606;9.222;2023-09-07T06:44:25;5.77;;;3.90;;
12892;SDS011;6514;48.606;9.222;2023-09-07T06:46:52;4.93;;;3.70;;
12892;SDS011;6514;48.606;9.222;2023-09-07T06:49:20;4.00;;;3.60;;
12892;SDS011;6514;48.606;9.222;2023-09-07T06:51:47;4.33;;;3.10;;
12892;SDS011;6514;48.606;9.222;2023-09-07T06:54:14;3.97;;;3.30;;
12892;SDS011;6514;48.606;9.222;2023-09-07T06:56:40;4.00;;;3.37;;
12892;SDS011;6514;48.606;9.222;2023-09-07T06:59:07;4.20;;;3.80;;
12892;SDS011;6514;48.606;9.222;2023-09-07T07:01:34;7.33;;;3.97;;
12892;SDS011;6514;48.606;9.222;2023-09-07T07:04:01;3.70;;;3.27;;
12892;SDS011;6514;48.606;9.222;2023-09-07T07:06:29;4.07;;;3.67;;
12892;SDS011;6514;48.606;9.222;2023-09-07T07:08:56;4.20;;;3.80;;
12892;SDS011;6514;48.606;9.222;2023-09-07T07:11:23;3.87;;;3.50;;
12892;SDS011;6514;48.606;9.222;2023-09-07T07:13:50;5.70;;;3.70;;
12892;SDS011;6514;48.606;9.222;2023-09-07T07:16:17;4.17;;;3.40;;
12892;SDS011;6514;48.606;9.222;2023-09-07T07:18:44;3.90;;;3.50;;
12892;SDS011;6514;48.606;9.222;2023-09-07T07:21:10;4.00;;;3.43;;
12892;SDS011;6514;48.606;9.222;2023-09-07T07:23:38;4.17;;;3.30;;
12892;SDS011;6514;48.606;9.222;2023-09-07T07:26:05;3.57;;;3.27;;
12892;SDS011;6514;48.606;9.222;2023-09-07T07:28:33;3.13;;;2.87;;
12892;SDS011;6514;48.606;9.222;2023-09-07T07:31:06;5.70;;;3.20;;
12892;SDS011;6514;48.606;9.222;2023-09-07T07:33:33;3.60;;;3.30;;
12892;SDS011;6514;48.606;9.222;2023-09-07T07:36:00;3.77;;;2.93;;
12892;SDS011;6514;48.606;9.222;2023-09-07T07:38:27;4.33;;;3.10;;
12892;SDS011;6514;48.606;9.222;2023-09-07T07:40:55;4.00;;;3.60;;
12892;SDS011;6514;48.606;9.222;2023-09-07T07:43:22;4.90;;;3.33;;
12892;SDS011;6514;48.606;9.222;2023-09-07T07:45:49;3.63;;;3.10;;
12892;SDS011;6514;48.606;9.222;2023-09-07T07:48:17;4.13;;;3.73;;
12892;SDS011;6514;48.606;9.222;2023-09-07T07:50:45;4.77;;;3.73;;
12892;SDS011;6514;48.606;9.222;2023-09-07T07:53:12;4.00;;;3.70;;
12892;SDS011;6514;48.606;9.222;2023-09-07T07:55:39;4.30;;;3.70;;
12892;SDS011;6514;48.606;9.222;2023-09-07T07:58:08;3.40;;;3.10;;
12892;SDS011;6514;48.606;9.222;2023-09-07T08:00:35;4.47;;;3.20;;
12892;SDS011;6514;48.606;9.222;2023-09-07T08:03:02;3.00;;;2.70;;
12892;SDS011;6514;48.606;9.222;2023-09-07T08:05:31;4.20;;;3.10;;
12892;SDS011;6514;48.606;9.222;2023-09-07T08:07:58;4.23;;;3.47;;
12892;SDS011;6514;48.606;9.222;2023-09-07T08:10:25;3.50;;;3.20;;
12892;SDS011;6514;48.606;9.222;2023-09-07T08:12:53;3.60;;;3.30;;
12892;SDS011;6514;48.606;9.222;2023-09-07T08:15:22;2.97;;;2.77;;
12892;SDS011;6514;48.606;9.222;2023-09-07T08:17:50;3.60;;;2.60;;
12892;SDS011;6514;48.606;9.222;2023-09-07T08:20:17;3.43;;;3.13;;
12892;SDS011;6514;48.606;9.222;2023-09-07T08:22:44;3.60;;;3.30;;
12892;SDS011;6514;48.606;9.222;2023-09-07T08:25:11;3.77;;;3.47;;
12892;SDS011;6514;48.606;9.222;2023-09-07T08:27:39;3.20;;;2.90;;
12892;SDS011;6514;48.606;9.222;2023-09-07T08:30:11;4.33;;;3.23;;
12892;SDS011;6514;48.606;9.222;2023-09-07T08:32:42;3.90;;;3.00;;
12892;SDS011;6514;48.606;9.222;2023-09-07T08:35:09;3.87;;;3.57;;
12892;SDS011;6514;48.606;9.222;2023-09-07T08:37:38;3.60;;;3.30;;
12892;SDS011;6514;48.606;9.222;2023-09-07T08:40:05;3.73;;;3.43;;
12892;SDS011;6514;48.606;9.222;2023-09-07T08:42:33;3.80;;;3.33;;
12892;SDS011;6514;48.606;9.222;2023-09-07T08:45:02;4.73;;;3.83;;
12892;SDS011;6514;48.606;9.222;2023-09-07T08:47:31;5.20;;;3.40;;
12892;SDS011;6514;48.606;9.222;2023-09-07T08:50:02;4.33;;;3.30;;
12892;SDS011;6514;48.606;9.222;2023-09-07T08:52:33;4.60;;;3.77;;
12892;SDS011;6514;48.606;9.222;2023-09-07T08:55:00;4.57;;;3.80;;
12892;SDS011;6514;48.606;9.222;2023-09-07T08:57:29;3.93;;;3.63;;
12892;SDS011;6514;48.606;9.222;2023-09-07T08:59:57;4.13;;;3.50;;
12892;SDS011;6514;48.606;9.222;2023-09-07T09:02:23;3.60;;;3.30;;
12892;SDS011;6514;48.606;9.222;2023-09-07T09:04:50;4.20;;;3.50;;
12892;SDS011;6514;48.606;9.222;2023-09-07T09:07:20;5.10;;;3.60;;
12892;SDS011;6514;48.606;9.222;2023-09-07T09:09:47;2.73;;;2.53;;
12892;SDS011;6514;48.606;9.222;2023-09-07T09:12:14;4.77;;;3.50;;
12892;SDS011;6514;48.606;9.222;2023-09-07T09:14:41;3.70;;;3.40;;
12892;SDS011;6514;48.606;9.222;2023-09-07T09:17:11;3.90;;;3.53;;
12892;SDS011;6514;48.606;9.222;2023-09-07T09:19:39;4.40;;;3.50;;
12892;SDS011;6514;48.606;9.222;2023-09-07T09:22:06;4.27;;;3.87;;
12892;SDS011;6514;48.606;9.222;2023-09-07T09:24:34;4.47;;;3.17;;
12892;SDS011;6514;48.606;9.222;2023-09-07T09:27:01;3.60;;;3.30;;
12892;SDS011;6514;48.606;9.222;2023-09-07T09:29:29;4.00;;;3.60;;
12892;SDS011;6514;48.606;9.222;2023-09-07T09:31:59;3.83;;;3.43;;
12892;SDS011;6514;48.606;9.222;2023-09-07T09:34:30;3.77;;;3.47;;
12892;SDS011;6514;48.606;9.222;2023-09-07T09:36:58;4.87;;;3.93;;
12892;SDS011;6514;48.606;9.222;2023-09-07T09:39:26;4.20;;;3.80;;
12892;SDS011;6514;48.606;9.222;2023-09-07T09:41:54;4.00;;;3.60;;
12892;SDS011;6514;48.606;9.222;2023-09-07T09:44:22;4.00;;;3.60;;
12892;SDS011;6514;48.606;9.222;2023-09-07T09:46:50;3.60;;;3.30;;
12892;SDS011;6514;48.606;9.222;2023-09-07T09:49:19;3.70;;;3.40;;
12892;SDS011;6514;48.606;9.222;2023-09-07T09:51:47;4.30;;;3.70;;
12892;SDS011;6514;48.606;9.222;2023-09-07T09:54:16;3.43;;;3.13;;
12892;SDS011;6514;48.606;9.222;2023-09-07T09:56:44;4.83;;;3.23;;
12892;SDS011;6514;48.606;9.222;2023-09-07T09:59:13;3.30;;;3.00;;
12892;SDS011;6514;48.606;9.222;2023-09-07T10:01:41;4.07;;;3.60;;
12892;SDS011;6514;48.606;9.222;2023-09-07T10:04:10;3.63;;;3.30;;
12892;SDS011;6514;48.606;9.222;2023-09-07T10:06:49;3.97;;;3.57;;
12892;SDS011;6514;48.606;9.222;2023-09-07T10:09:17;3.77;;;3.40;;
12892;SDS011;6514;48.606;9.222;2023-09-07T10:11:50;3.70;;;3.33;;
12892;SDS011;6514;48.606;9.222;2023-09-07T10:14:20;3.50;;;3.20;;
12892;SDS011;6514;48.606;9.222;2023-09-07T10:16:47;4.73;;;4.07;;
12892;SDS011;6514;48.606;9.222;2023-09-07T10:19:16;4.40;;;3.53;;
12892;SDS011;6514;48.606;9.222;2023-09-07T10:21:44;4.33;;;3.90;;
12892;SDS011;6514;48.606;9.222;2023-09-07T10:24:11;3.63;;;3.30;;
12892;SDS011;6514;48.606;9.222;2023-09-07T10:26:55;4.47;;;3.60;;
12892;SDS011;6514;48.606;9.222;2023-09-07T10:29:24;4.10;;;3.70;;
12892;SDS011;6514;48.606;9.222;2023-09-07T10:31:51;3.43;;;3.13;;
12892;SDS011;6514;48.606;9.222;2023-09-07T10:34:18;5.30;;;3.42;;
12892;SDS011;6514;48.606;9.222;2023-09-07T10:36:47;4.32;;;3.67;;
12892;SDS011;6514;48.606;9.222;2023-09-07T10:39:16;3.88;;;3.58;;
12892;SDS011;6514;48.606;9.222;2023-09-07T10:41:43;4.07;;;3.67;;
12892;SDS011;6514;48.606;9.222;2023-09-07T10:44:11;3.92;;;3.28;;
12892;SDS011;6514;48.606;9.222;2023-09-07T10:46:40;3.97;;;3.67;;
12892;SDS011;6514;48.606;9.222;2023-09-07T10:49:07;3.90;;;3.47;;
12892;SDS011;6514;48.606;9.222;2023-09-07T10:51:40;3.55;;;3.25;;
12892;SDS011;6514;48.606;9.222;2023-09-07T10:54:21;3.05;;;2.85;;
12892;SDS011;6514;48.606;9.222;2023-09-07T10:56:49;4.47;;;3.50;;
12892;SDS011;6514;48.606;9.222;2023-09-07T10:59:16;4.50;;;3.78;;
12892;SDS011;6514;48.606;9.222;2023-09-07T11:01:44;3.97;;;3.58;;
12892;SDS011;6514;48.606;9.222;2023-09-07T11:04:13;4.40;;;3.97;;
12892;SDS011;6514;48.606;9.222;2023-09-07T11:06:42;3.85;;;3.20;;
12892;SDS011;6514;48.606;9.222;2023-09-07T11:09:09;3.45;;;3.15;;
12892;SDS011;6514;48.606;9.222;2023-09-07T11:11:36;3.80;;;3.50;;
12892;SDS011;6514;48.606;9.222;2023-09-07T11:14:03;4.13;;;3.72;;
12892;SDS011;6514;48.606;9.222;2023-09-07T11:16:32;4.38;;;3.40;;
12892;SDS011;6514;48.606;9.222;2023-09-07T11:19:03;5.35;;;3.45;;
12892;SDS011;6514;48.606;9.222;2023-09-07T11:21:31;4.13;;;3.72;;
12892;SDS011;6514;48.606;9.222;2023-09-07T11:23:59;4.22;;;3.55;;
12892;SDS011;6514;48.606;9.222;2023-09-07T11:26:29;3.22;;;3.00;;
12892;SDS011;6514;48.606;9.222;2023-09-07T11:29:06;3.42;;;3.13;;
12892;SDS011;6514;48.606;9.222;2023-09-07T11:31:32;4.93;;;3.60;;
12892;SDS011;6514;48.606;9.222;2023-09-07T11:33:59;4.07;;;3.63;;
12892;SDS011;6514;48.606;9.222;2023-09-07T11:36:27;4.22;;;3.92;;
12892;SDS011;6514;48.606;9.222;2023-09-07T11:38:54;4.70;;;3.58;;
12892;SDS011;6514;48.606;9.222;2023-09-07T11:41:21;4.57;;;3.80;;
12892;SDS011;6514;48.606;9.222;2023-09-07T11:43:48;3.95;;;3.55;;
12892;SDS011;6514;48.606;9.222;2023-09-07T11:46:15;4.22;;;3.45;;
12892;SDS011;6514;48.606;9.222;2023-09-07T11:48:41;4.15;;;3.25;;
12892;SDS011;6514;48.606;9.222;2023-09-07T11:51:08;6.22;;;3.33;;
12892;SDS011;6514;48.606;9.222;2023-09-07T11:53:36;3.83;;;3.20;;
12892;SDS011;6514;48.606;9.222;2023-09-07T11:56:03;3.50;;;3.20;;
12892;SDS011;6514;48.606;9.222;2023-09-07T11:58:30;3.83;;;3.20;;
12892;SDS011;6514;48.606;9.222;2023-09-07T12:00:57;3.15;;;2.92;;
12892;SDS011;6514;48.606;9.222;2023-09-07T12:03:24;3.10;;;2.90;;
12892;SDS011;6514;48.606;9.222;2023-09-07T12:05:49;3.53;;;3.22;;
12892;SDS011;6514;48.606;9.222;2023-09-07T12:08:16;3.83;;;3.40;;
12892;SDS011;6514;48.606;9.222;2023-09-07T12:10:44;3.10;;;2.90;;
12892;SDS011;6514;48.606;9.222;2023-09-07T12:13:12;3.83;;;3.53;;
12892;SDS011;6514;48.606;9.222;2023-09-07T12:15:39;3.75;;;3.00;;
12892;SDS011;6514;48.606;9.222;2023-09-07T12:18:06;3.92;;;3.40;;
12892;SDS011;6514;48.606;9.222;2023-09-07T12:20:33;3.83;;;3.45;;
12892;SDS011;6514;48.606;9.222;2023-09-07T12:23:00;3.50;;;3.17;;
12892;SDS011;6514;48.606;9.222;2023-09-07T12:25:27;3.92;;;3.10;;
12892;SDS011;6514;48.606;9.222;2023-09-07T12:27:55;3.60;;;3.03;;
12892;SDS011;6514;48.606;9.222;2023-09-07T12:30:22;3.15;;;2.92;;
12892;SDS011;6514;48.606;9.222;2023-09-07T12:32:49;3.45;;;3.15;;
12892;SDS011;6514;48.606;9.222;2023-09-07T12:35:16;3.25;;;2.95;;
12892;SDS011;6514;48.606;9.222;2023-09-07T12:37:45;3.08;;;2.78;;
12892;SDS011;6514;48.606;9.222;2023-09-07T12:40:12;3.70;;;3.40;;
12892;SDS011;6514;48.606;9.222;2023-09-07T12:42:39;4.28;;;3.17;;
12892;SDS011;6514;48.606;9.222;2023-09-07T12:45:08;3.42;;;3.10;;
12892;SDS011;6514;48.606;9.222;2023-09-07T12:47:36;3.55;;;2.88;;
12892;SDS011;6514;48.606;9.222;2023-09-07T12:50:04;3.08;;;2.78;;
12892;SDS011;6514;48.606;9.222;2023-09-07T12:52:32;4.75;;;2.70;;
12892;SDS011;6514;48.606;9.222;2023-09-07T12:55:01;3.13;;;2.83;;
12892;SDS011;6514;48.606;9.222;2023-09-07T12:57:28;3.40;;;2.95;;
12892;SDS011;6514;48.606;9.222;2023-09-07T12:59:55;3.58;;;3.28;;
12892;SDS011;6514;48.606;9.222;2023-09-07T13:02:23;3.38;;;2.58;;
12892;SDS011;6514;48.606;9.222;2023-09-07T13:04:50;3.40;;;3.10;;
12892;SDS011;6514;48.606;9.222;2023-09-07T13:07:17;2.80;;;2.60;;
12892;SDS011;6514;48.606;9.222;2023-09-07T13:09:43;3.67;;;3.08;;
12892;SDS011;6514;48.606;9.222;2023-09-07T13:12:11;2.88;;;2.67;;
12892;SDS011;6514;48.606;9.222;2023-09-07T13:14:37;3.55;;;2.88;;
12892;SDS011;6514;48.606;9.222;2023-09-07T13:17:04;3.45;;;3.05;;
12892;SDS011;6514;48.606;9.222;2023-09-07T13:19:32;3.10;;;2.80;;
12892;SDS011;6514;48.606;9.222;2023-09-07T13:21:59;3.28;;;2.80;;
12892;SDS011;6514;48.606;9.222;2023-09-07T13:24:26;2.78;;;2.58;;
12892;SDS011;6514;48.606;9.222;2023-09-07T13:26:54;2.95;;;2.50;;
12892;SDS011;6514;48.606;9.222;2023-09-07T13:29:21;2.58;;;2.38;;
12892;SDS011;6514;48.606;9.222;2023-09-07T13:31:48;2.50;;;2.30;;
12892;SDS011;6514;48.606;9.222;2023-09-07T13:34:15;2.80;;;2.60;;
12892;SDS011;6514;48.606;9.222;2023-09-07T13:36:43;3.10;;;2.80;;
12892;SDS011;6514;48.606;9.222;2023-09-07T13:39:10;3.60;;;2.40;;
12892;SDS011;6514;48.606;9.222;2023-09-07T13:41:36;2.83;;;2.63;;
12892;SDS011;6514;48.606;9.222;2023-09-07T13:44:03;4.57;;;2.63;;
12892;SDS011;6514;48.606;9.222;2023-09-07T13:46:30;2.90;;;2.65;;
12892;SDS011;6514;48.606;9.222;2023-09-07T13:48:58;3.53;;;2.20;;
12892;SDS011;6514;48.606;9.222;2023-09-07T13:51:24;3.38;;;2.20;;
12892;SDS011;6514;48.606;9.222;2023-09-07T13:53:53;2.42;;;2.20;;
12892;SDS011;6514;48.606;9.222;2023-09-07T13:56:19;2.55;;;2.35;;
12892;SDS011;6514;48.606;9.222;2023-09-07T13:58:46;2.83;;;2.63;;
12892;SDS011;6514;48.606;9.222;2023-09-07T14:01:13;2.70;;;2.50;;
12892;SDS011;6514;48.606;9.222;2023-09-07T14:03:40;3.80;;;2.67;;
12892;SDS011;6514;48.606;9.222;2023-09-07T14:06:07;3.28;;;2.38;;
12892;SDS011;6514;48.606;9.222;2023-09-07T14:08:34;3.20;;;2.58;;
12892;SDS011;6514;48.606;9.222;2023-09-07T14:11:02;2.50;;;2.30;;
12892;SDS011;6514;48.606;9.222;2023-09-07T14:13:29;2.80;;;2.50;;
12892;SDS011;6514;48.606;9.222;2023-09-07T14:15:59;2.67;;;2.47;;
12892;SDS011;6514;48.606;9.222;2023-09-07T14:18:26;2.60;;;2.40;;
12892;SDS011;6514;48.606;9.222;2023-09-07T14:20:53;2.60;;;2.20;;
12892;SDS011;6514;48.606;9.222;2023-09-07T14:23:22;3.20;;;2.90;;
12892;SDS011;6514;48.606;9.222;2023-09-07T14:25:50;2.88;;;2.47;;
12892;SDS011;6514;48.606;9.222;2023-09-07T14:28:18;2.83;;;2.50;;
12892;SDS011;6514;48.606;9.222;2023-09-07T14:30:45;2.28;;;2.08;;
12892;SDS011;6514;48.606;9.222;2023-09-07T14:33:12;3.55;;;2.88;;
12892;SDS011;6514;48.606;9.222;2023-09-07T14:35:39;2.90;;;2.50;;
12892;SDS011;6514;48.606;9.222;2023-09-07T14:38:06;2.45;;;2.25;;
12892;SDS011;6514;48.606;9.222;2023-09-07T14:40:33;2.50;;;2.30;;
12892;SDS011;6514;48.606;9.222;2023-09-07T14:42:59;2.97;;;2.43;;
12892;SDS011;6514;48.606;9.222;2023-09-07T14:45:28;2.97;;;2.78;;
12892;SDS011;6514;48.606;9.222;2023-09-07T14:47:55;2.33;;;2.13;;
12892;SDS011;6514;48.606;9.222;2023-09-07T14:50:21;3.05;;;2.85;;
12892;SDS011;6514;48.606;9.222;2023-09-07T14:52:48;5.20;;;2.50;;
12892;SDS011;6514;48.606;9.222;2023-09-07T14:55:15;2.87;;;2.30;;
12892;SDS011;6514;48.606;9.222;2023-09-07T14:57:42;3.07;;;2.83;;
12892;SDS011;6514;48.606;9.222;2023-09-07T15:00:09;3.60;;;2.70;;
12892;SDS011;6514;48.606;9.222;2023-09-07T15:02:38;3.00;;;2.57;;